createdAt,value
2019-05-11T00:01:25.538Z,19.67
2019-05-11T00:03:54.196Z,21.35
2019-05-11T00:06:22.765Z,12.47
2019-05-11T00:08:51.448Z,11.28
2019-05-11T00:11:20.075Z,18.23
2019-05-11T00:13:48.758Z,14.40
2019-05-11T00:16:19.114Z,15.33
2019-05-11T00:18:47.547Z,10.48
2019-05-11T00:21:16.106Z,12.93
2019-05-11T00:23:44.789Z,11.43
2019-05-11T00:26:13.415Z,11.57
2019-05-11T00:28:43.131Z,13.23
2019-05-11T00:31:11.735Z,9.15
2019-05-11T00:33:40.326Z,9.80
2019-05-11T00:36:09.053Z,10.03
2019-05-11T00:38:37.652Z,10.45
2019-05-11T00:41:06.206Z,10.03
2019-05-11T00:43:34.777Z,12.13
2019-05-11T00:46:03.455Z,10.40
2019-05-11T00:48:32.053Z,10.68
2019-05-11T00:51:01.369Z,11.10
2019-05-11T00:53:29.944Z,10.95
2019-05-11T00:55:58.718Z,10.82
2019-05-11T00:58:27.307Z,10.43
2019-05-11T01:00:55.877Z,10.57
2019-05-11T01:03:24.517Z,10.87
2019-05-11T01:05:53.182Z,10.75
2019-05-11T01:08:21.749Z,10.63
2019-05-11T01:10:50.367Z,15.80
2019-05-11T01:13:18.991Z,9.40
2019-05-11T01:15:47.603Z,9.63
2019-05-11T01:18:16.300Z,10.15
2019-05-11T01:20:44.982Z,10.25
2019-05-11T01:23:14.649Z,9.55
2019-05-11T01:25:43.373Z,9.08
2019-05-11T01:28:11.933Z,8.60
2019-05-11T01:30:40.500Z,9.10
2019-05-11T01:33:09.145Z,8.67
2019-05-11T01:35:37.746Z,8.83
2019-05-11T01:38:07.623Z,9.47
2019-05-11T01:40:36.243Z,9.03
2019-05-11T01:43:04.909Z,9.10
2019-05-11T01:45:33.790Z,9.63
2019-05-11T01:48:02.417Z,9.13
2019-05-11T01:50:31.028Z,10.00
2019-05-11T01:52:59.626Z,8.80
2019-05-11T01:55:28.193Z,9.07
2019-05-11T01:57:56.794Z,8.67
2019-05-11T02:00:25.600Z,9.53
2019-05-11T02:02:54.160Z,8.73
2019-05-11T02:05:29.415Z,9.00
2019-05-11T02:07:59.557Z,9.10
2019-05-11T02:10:28.459Z,9.13
2019-05-11T02:12:57.101Z,8.83
2019-05-11T02:15:25.848Z,9.63
2019-05-11T02:17:54.401Z,9.38
2019-05-11T02:20:23.106Z,8.53
2019-05-11T02:22:51.735Z,10.60
2019-05-11T02:25:20.374Z,11.13
2019-05-11T02:27:49.025Z,10.00
2019-05-11T02:30:17.809Z,9.27
2019-05-11T02:32:46.495Z,12.00
2019-05-11T02:35:15.585Z,11.63
2019-05-11T02:37:44.364Z,10.70
2019-05-11T02:40:13.575Z,9.93
2019-05-11T02:42:42.256Z,10.93
2019-05-11T02:45:11.461Z,10.40
2019-05-11T02:47:40.205Z,11.45
2019-05-11T02:50:09.321Z,11.55
2019-05-11T02:52:39.132Z,12.28
2019-05-11T02:55:09.273Z,9.95
2019-05-11T02:57:37.856Z,10.35
2019-05-11T03:00:09.564Z,10.43
2019-05-11T03:02:38.146Z,10.25
2019-05-11T03:05:07.823Z,9.80
2019-05-11T03:07:36.558Z,9.53
2019-05-11T03:10:05.714Z,10.10
2019-05-11T03:12:34.413Z,9.13
2019-05-11T03:15:03.276Z,9.35
2019-05-11T03:17:33.596Z,8.80
2019-05-11T03:20:02.207Z,9.43
2019-05-11T03:22:30.882Z,9.18
2019-05-11T03:24:59.453Z,10.50
2019-05-11T03:27:29.323Z,8.43
2019-05-11T03:30:00.506Z,9.28
2019-05-11T03:32:28.141Z,9.33
2019-05-11T03:34:56.818Z,9.07
2019-05-11T03:37:25.414Z,13.22
2019-05-11T03:39:55.797Z,12.53
2019-05-11T03:42:24.461Z,15.45
2019-05-11T03:44:53.050Z,10.58
2019-05-11T03:47:23.162Z,10.63
2019-05-11T03:49:51.722Z,9.70
2019-05-11T03:52:20.297Z,9.23
2019-05-11T03:54:48.843Z,10.00
2019-05-11T03:57:17.592Z,10.00
2019-05-11T03:59:46.488Z,9.70
2019-05-11T04:02:15.088Z,9.80
2019-05-11T04:04:43.775Z,9.53
2019-05-11T04:07:12.331Z,9.70
2019-05-11T04:09:41.047Z,9.67
2019-05-11T04:12:09.661Z,10.53
2019-05-11T04:14:38.320Z,9.00
2019-05-11T04:17:06.994Z,10.15
2019-05-11T04:19:35.659Z,10.03
2019-05-11T04:22:04.382Z,10.15
2019-05-11T04:24:33.056Z,9.55
2019-05-11T04:27:01.718Z,11.97
2019-05-11T04:29:30.302Z,8.87
2019-05-11T04:31:58.886Z,10.17
2019-05-11T04:34:27.526Z,10.08
2019-05-11T04:36:56.099Z,8.50
2019-05-11T04:39:24.742Z,8.67
2019-05-11T04:41:53.302Z,9.18
2019-05-11T04:44:21.996Z,9.13
2019-05-11T04:46:50.615Z,8.75
2019-05-11T04:49:19.183Z,10.13
2019-05-11T04:51:47.819Z,9.90
2019-05-11T04:54:16.540Z,9.63
2019-05-11T04:56:45.143Z,10.15
2019-05-11T04:59:13.764Z,9.27
2019-05-11T05:01:42.422Z,9.70
2019-05-11T05:04:14.651Z,9.60
2019-05-11T05:06:41.315Z,9.10
2019-05-11T05:09:09.925Z,9.13
2019-05-11T05:11:38.606Z,7.95
2019-05-11T05:14:08.093Z,8.53
2019-05-11T05:16:37.292Z,8.35
2019-05-11T05:19:05.974Z,9.53
2019-05-11T05:21:34.631Z,8.20
2019-05-11T05:24:03.219Z,7.95
2019-05-11T05:26:31.824Z,8.08
2019-05-11T05:29:00.412Z,8.05
2019-05-11T05:31:29.018Z,7.47
2019-05-11T05:34:01.226Z,7.53
2019-05-11T05:36:28.208Z,7.67
2019-05-11T05:38:56.876Z,7.17
2019-05-11T05:41:25.426Z,7.47
2019-05-11T05:43:54.090Z,8.03
2019-05-11T05:46:22.786Z,8.80
2019-05-11T05:48:51.386Z,7.75
2019-05-11T05:51:20.023Z,7.90
2019-05-11T05:53:48.563Z,8.45
2019-05-11T05:56:17.154Z,8.30
2019-05-11T05:58:45.714Z,9.20
2019-05-11T06:01:14.361Z,8.00
2019-05-11T06:03:42.998Z,8.30
2019-05-11T06:06:11.602Z,10.48
2019-05-11T06:08:43.138Z,15.32
2019-05-11T06:11:10.437Z,12.58
2019-05-11T06:13:45.383Z,10.35
2019-05-11T06:16:09.510Z,9.95
2019-05-11T06:18:38.099Z,9.93
2019-05-11T06:21:06.689Z,10.13
2019-05-11T06:23:35.295Z,9.93
2019-05-11T06:26:03.934Z,11.05
2019-05-11T06:28:32.502Z,10.65
2019-05-11T06:31:01.218Z,10.77
2019-05-11T06:33:29.806Z,10.53
2019-05-11T06:35:58.477Z,11.25
2019-05-11T06:38:27.132Z,9.70
2019-05-11T06:40:55.727Z,10.43
2019-05-11T06:43:24.334Z,11.35
2019-05-11T06:45:52.942Z,11.17
2019-05-11T06:48:21.615Z,11.57
2019-05-11T06:50:50.182Z,15.38
2019-05-11T06:53:18.782Z,16.12
2019-05-11T06:55:47.389Z,14.33
2019-05-11T06:58:15.949Z,16.40
2019-05-11T07:00:44.626Z,13.48
2019-05-11T07:03:13.414Z,13.58
2019-05-11T07:05:42.007Z,12.33
2019-05-11T07:08:10.675Z,11.10
2019-05-11T07:10:39.268Z,10.53
2019-05-11T07:13:07.825Z,11.20
2019-05-11T07:15:36.437Z,10.32
2019-05-11T07:18:05.331Z,12.95
2019-05-11T07:20:49.109Z,11.08
2019-05-11T07:23:04.192Z,10.95
2019-05-11T07:25:32.919Z,12.78
2019-05-11T07:28:02.171Z,13.75
2019-05-11T07:30:31.036Z,12.10
2019-05-11T07:33:01.117Z,13.00
2019-05-11T07:35:29.782Z,14.63
2019-05-11T07:37:58.384Z,14.50
2019-05-11T07:40:27.962Z,12.60
2019-05-11T07:42:58.788Z,12.15
2019-05-11T07:45:28.375Z,11.55
2019-05-11T07:47:58.968Z,11.22
2019-05-11T07:50:28.391Z,10.35
2019-05-11T07:52:58.834Z,10.38
2019-05-11T07:55:28.281Z,19.23
2019-05-11T07:57:58.570Z,9.88
2019-05-11T08:00:28.151Z,11.75
2019-05-11T08:02:58.530Z,9.88
2019-05-11T08:05:28.345Z,9.98
2019-05-11T08:07:59.319Z,10.65
2019-05-11T08:10:28.144Z,9.75
2019-05-11T08:12:58.831Z,10.45
2019-05-11T08:15:28.375Z,9.28
2019-05-11T08:17:57.858Z,9.65
2019-05-11T08:20:28.107Z,9.43
2019-05-11T08:22:58.687Z,9.50
2019-05-11T08:25:28.726Z,13.70
2019-05-11T08:27:58.813Z,9.43
2019-05-11T08:30:27.989Z,10.72
2019-05-11T08:32:58.286Z,9.68
2019-05-11T08:35:30.889Z,8.73
2019-05-11T08:37:58.369Z,8.80
2019-05-11T08:40:28.844Z,7.75
2019-05-11T08:42:58.327Z,8.13
2019-05-11T08:45:28.018Z,8.63
2019-05-11T08:47:57.978Z,6.67
2019-05-11T08:50:27.916Z,7.03
2019-05-11T08:52:58.117Z,7.85
2019-05-11T08:55:28.971Z,7.22
2019-05-11T08:57:58.547Z,7.50
2019-05-11T09:00:28.408Z,7.80
2019-05-11T09:02:58.238Z,7.70
2019-05-11T09:05:27.999Z,7.35
2019-05-11T09:07:57.736Z,7.42
2019-05-11T09:10:28.033Z,6.50
2019-05-11T09:12:59.035Z,6.17
2019-05-11T09:15:36.264Z,7.12
2019-05-11T09:17:57.847Z,6.67
2019-05-11T09:20:28.324Z,6.50
2019-05-11T09:22:58.807Z,7.15
2019-05-11T09:25:27.794Z,6.28
2019-05-11T09:27:58.700Z,7.00
2019-05-11T09:30:28.786Z,6.42
2019-05-11T09:32:58.153Z,6.00
2019-05-11T09:35:29.044Z,6.37
2019-05-11T09:37:58.780Z,6.30
2019-05-11T09:40:28.378Z,5.92
2019-05-11T09:42:58.490Z,5.95
2019-05-11T09:45:27.877Z,5.60
2019-05-11T09:50:27.741Z,6.08
2019-05-11T09:52:58.094Z,5.83
2019-05-11T09:55:28.264Z,5.72
2019-05-11T09:57:57.987Z,5.65
2019-05-11T10:00:28.253Z,5.33
2019-05-11T10:02:57.695Z,5.58
2019-05-11T10:05:28.420Z,6.28
2019-05-11T10:07:58.873Z,6.47
2019-05-11T10:10:28.978Z,6.65
2019-05-11T10:12:59.014Z,6.12
2019-05-11T10:15:28.117Z,19.80
2019-05-11T10:17:58.855Z,6.03
2019-05-11T10:20:28.614Z,6.37
2019-05-11T10:22:58.065Z,6.42
2019-05-11T10:25:28.761Z,6.08
2019-05-11T10:27:58.013Z,10.13
2019-05-11T10:30:28.076Z,12.82
2019-05-11T10:32:57.752Z,14.73
2019-05-11T10:35:28.198Z,14.40
2019-05-11T10:37:58.341Z,13.65
2019-05-11T10:40:28.186Z,14.25
2019-05-11T10:42:59.015Z,14.47
2019-05-11T10:45:28.527Z,15.25
2019-05-11T10:48:00.669Z,14.78
2019-05-11T10:50:28.723Z,14.05
2019-05-11T10:52:59.014Z,15.43
2019-05-11T10:55:28.032Z,14.87
2019-05-11T10:57:58.109Z,16.12
2019-05-11T11:00:28.297Z,19.42
2019-05-11T11:02:58.135Z,19.17
2019-05-11T11:05:27.915Z,16.65
2019-05-11T11:07:58.671Z,15.48
2019-05-11T11:10:28.589Z,16.17
2019-05-11T11:12:57.787Z,16.23
2019-05-11T11:17:54.524Z,18.48
2019-05-11T11:20:23.541Z,20.55
2019-05-11T11:22:52.147Z,18.60
2019-05-11T11:25:20.742Z,17.40
2019-05-11T11:27:49.411Z,17.55
2019-05-11T11:30:19.415Z,15.88
2019-05-11T11:32:48.394Z,15.38
2019-05-11T11:35:18.689Z,15.30
2019-05-11T11:37:47.939Z,13.00
2019-05-11T11:40:17.999Z,12.43
2019-05-11T11:42:47.785Z,13.98
2019-05-11T11:45:18.282Z,12.07
2019-05-11T11:47:49.273Z,12.90
2019-05-11T11:50:17.930Z,11.73
2019-05-11T11:52:47.720Z,12.20
2019-05-11T11:55:18.597Z,11.50
2019-05-11T11:57:48.974Z,11.40
2019-05-11T12:00:18.426Z,12.98
2019-05-11T12:05:17.657Z,13.62
2019-05-11T12:07:48.835Z,12.03
2019-05-11T12:10:18.373Z,11.38
2019-05-11T12:12:47.588Z,11.63
2019-05-11T12:15:17.797Z,11.80
2019-05-11T12:17:48.368Z,12.15
2019-05-11T12:20:18.458Z,11.93
2019-05-11T12:22:47.611Z,13.78
2019-05-11T12:25:18.454Z,13.00
2019-05-11T12:27:48.827Z,12.68
2019-05-11T12:30:17.787Z,13.18
2019-05-11T12:32:48.738Z,13.93
2019-05-11T12:35:18.112Z,14.23
2019-05-11T12:37:48.481Z,13.25
2019-05-11T12:40:18.381Z,14.40
2019-05-11T12:42:48.878Z,13.35
2019-05-11T12:45:18.193Z,12.25
2019-05-11T12:47:47.992Z,13.05
2019-05-11T12:50:19.139Z,13.00
2019-05-11T12:52:47.847Z,13.62
2019-05-11T12:55:17.951Z,13.38
2019-05-11T12:57:47.783Z,13.48
2019-05-11T13:00:18.179Z,14.45
2019-05-11T13:02:48.481Z,13.62
2019-05-11T13:05:18.056Z,13.78
2019-05-11T13:07:48.110Z,13.68
2019-05-11T13:10:17.873Z,12.78
2019-05-11T13:12:49.005Z,13.05
2019-05-11T13:15:17.621Z,13.00
2019-05-11T13:20:14.418Z,11.80
2019-05-11T13:22:43.010Z,12.30
2019-05-11T13:25:11.774Z,11.38
2019-05-11T13:27:40.363Z,11.95
2019-05-11T13:30:09.894Z,10.90
2019-05-11T13:35:09.117Z,11.03
2019-05-11T13:37:38.685Z,10.90
2019-05-11T13:40:08.661Z,13.32
2019-05-11T13:42:38.517Z,12.28
2019-05-11T13:45:08.668Z,13.38
2019-05-11T13:47:49.356Z,14.05
2019-05-11T13:50:08.397Z,12.68
2019-05-11T13:52:38.599Z,13.20
2019-05-11T13:55:09.568Z,12.58
2019-05-11T13:57:38.906Z,12.37
2019-05-11T14:00:09.547Z,12.40
2019-05-11T14:02:38.267Z,12.07
2019-05-11T14:07:38.642Z,11.75
2019-05-11T14:10:08.412Z,12.73
2019-05-11T14:12:38.502Z,12.98
2019-05-11T14:15:08.833Z,13.15
2019-05-11T14:17:38.015Z,12.88
2019-05-11T14:22:39.344Z,14.47
2019-05-11T14:25:08.535Z,13.83
2019-05-11T14:30:08.862Z,13.72
2019-05-11T14:32:21.057Z,13.25
2019-05-11T14:32:38.814Z,14.00
2019-05-11T14:35:11.953Z,13.15
2019-05-11T14:37:38.269Z,14.10
2019-05-11T14:40:08.778Z,12.78
2019-05-11T14:42:38.197Z,18.65
2019-05-11T14:47:38.695Z,18.32
2019-05-11T14:50:08.602Z,14.33
2019-05-11T14:52:38.845Z,15.32
2019-05-11T14:55:08.268Z,14.80
2019-05-11T14:57:39.397Z,15.53
2019-05-11T15:00:09.409Z,15.48
2019-05-11T15:02:49.210Z,14.68
2019-05-11T15:05:18.508Z,13.88
2019-05-11T15:07:48.134Z,14.70
2019-05-11T15:10:19.424Z,14.15
2019-05-11T15:12:48.870Z,13.83
2019-05-11T15:15:18.857Z,14.28
2019-05-11T15:17:49.173Z,14.90
2019-05-11T15:20:18.467Z,14.55
2019-05-11T15:22:48.948Z,14.73
2019-05-11T15:25:19.238Z,14.70
2019-05-11T15:27:48.989Z,16.12
2019-05-11T15:30:18.401Z,15.88
2019-05-11T15:32:48.227Z,16.45
2019-05-11T15:35:18.523Z,14.40
2019-05-11T15:37:48.382Z,16.32
2019-05-11T15:42:48.698Z,17.10
2019-05-11T15:45:19.624Z,15.90
2019-05-11T15:47:48.995Z,16.37
2019-05-11T15:52:48.801Z,16.45
2019-05-11T15:55:19.298Z,15.30
2019-05-11T15:57:48.571Z,17.10
2019-05-11T16:00:17.550Z,18.55
2019-05-11T16:02:48.732Z,21.37
2019-05-11T16:05:18.292Z,22.65
2019-05-11T16:07:49.123Z,20.57
2019-05-11T16:10:18.807Z,19.65
2019-05-11T16:12:48.536Z,17.65
2019-05-11T16:15:19.206Z,16.77
2019-05-11T16:17:48.743Z,18.50
2019-05-11T16:20:18.296Z,18.67
2019-05-11T16:22:48.011Z,19.07
2019-05-11T16:25:19.745Z,19.23
2019-05-11T16:27:47.606Z,18.37
2019-05-11T16:30:20.817Z,18.52
2019-05-11T16:32:48.041Z,18.52
2019-05-11T16:35:18.032Z,18.65
2019-05-11T16:37:48.619Z,19.82
2019-05-11T16:40:20.215Z,20.92
2019-05-11T16:42:47.994Z,20.43
2019-05-11T16:45:19.056Z,21.02
2019-05-11T16:47:48.276Z,21.75
2019-05-11T16:50:18.065Z,21.12
2019-05-11T16:52:48.361Z,21.17
2019-05-11T16:55:18.346Z,20.95
2019-05-11T16:57:48.491Z,21.25
2019-05-11T17:00:17.916Z,22.52
2019-05-11T17:02:48.670Z,22.73
2019-05-11T17:05:26.087Z,23.38
2019-05-11T17:07:48.355Z,22.37
2019-05-11T17:10:17.963Z,23.62
2019-05-11T17:12:48.280Z,24.40
2019-05-11T17:15:18.534Z,27.25
2019-05-11T17:17:48.863Z,26.68
2019-05-11T17:20:18.925Z,27.35
2019-05-11T17:22:48.402Z,26.07
2019-05-11T17:25:19.169Z,27.87
2019-05-11T17:27:48.803Z,27.60
2019-05-11T17:30:19.638Z,28.23
2019-05-11T17:32:49.493Z,29.80
2019-05-11T17:35:18.615Z,30.75
2019-05-11T17:37:48.511Z,30.88
2019-05-11T17:40:20.817Z,33.35
2019-05-11T17:42:48.506Z,36.65
2019-05-11T17:45:19.000Z,34.50
2019-05-11T17:47:47.476Z,36.17
2019-05-11T17:50:18.860Z,36.50
2019-05-11T17:52:47.902Z,38.92
2019-05-11T17:55:18.538Z,40.60
2019-05-11T17:57:49.546Z,37.90
2019-05-11T18:00:19.767Z,36.98
2019-05-11T18:02:49.034Z,35.23
2019-05-11T18:05:18.236Z,33.55
2019-05-11T18:07:46.969Z,33.02
2019-05-11T18:10:18.006Z,31.43
2019-05-11T18:12:48.307Z,31.05
2019-05-11T18:15:18.568Z,32.15
2019-05-11T18:17:48.495Z,29.75
2019-05-11T18:20:21.905Z,30.62
2019-05-11T18:22:49.358Z,30.90
2019-05-11T18:25:18.497Z,30.45
2019-05-11T18:27:48.288Z,33.13
2019-05-11T18:30:17.954Z,31.48
2019-05-11T18:37:44.056Z,29.20
2019-05-11T18:40:12.977Z,29.07
2019-05-11T18:42:41.589Z,29.57
2019-05-11T18:45:10.581Z,30.00
2019-05-11T18:47:39.190Z,29.25
2019-05-11T18:50:08.389Z,32.17
2019-05-11T18:52:37.153Z,39.45
2019-05-11T18:55:08.365Z,31.62
2019-05-11T18:57:38.412Z,32.78
2019-05-11T19:00:10.699Z,31.02
2019-05-11T19:02:39.327Z,28.32
2019-05-11T19:05:08.035Z,29.12
2019-05-11T19:07:38.748Z,28.75
2019-05-11T19:10:08.560Z,29.20
2019-05-11T19:12:37.767Z,29.67
2019-05-11T19:15:08.009Z,31.20
2019-05-11T19:17:38.500Z,30.37
2019-05-11T19:20:08.551Z,29.60
2019-05-11T19:22:38.138Z,30.52
2019-05-11T19:25:09.090Z,32.58
2019-05-11T19:27:37.975Z,32.35
2019-05-11T19:30:08.476Z,30.70
2019-05-11T19:32:38.356Z,28.80
2019-05-11T19:35:08.981Z,31.12
2019-05-11T19:37:38.799Z,31.77
2019-05-11T19:40:09.167Z,29.90
2019-05-11T19:42:53.882Z,30.48
2019-05-11T19:45:22.569Z,31.25
2019-05-11T19:47:51.156Z,32.23
2019-05-11T19:50:19.979Z,32.03
2019-05-11T19:52:48.585Z,31.07
2019-05-11T19:55:17.991Z,30.72
2019-05-11T19:57:48.337Z,31.93
2019-05-11T20:00:18.498Z,30.30
2019-05-11T20:02:47.258Z,30.32
2019-05-11T20:05:18.156Z,29.90
2019-05-11T20:07:48.707Z,29.48
2019-05-11T20:10:18.936Z,31.73
2019-05-11T20:12:48.393Z,31.68
2019-05-11T20:15:18.905Z,32.93
2019-05-11T20:17:48.541Z,30.97
2019-05-11T20:20:18.701Z,32.40
2019-05-11T20:22:48.296Z,32.17
2019-05-11T20:25:18.585Z,30.45
2019-05-11T20:27:48.673Z,30.40
2019-05-11T20:30:18.421Z,32.05
2019-05-11T20:32:48.334Z,32.90
2019-05-11T20:35:17.732Z,35.38
2019-05-11T20:37:46.289Z,32.85
2019-05-11T20:40:15.031Z,33.73
2019-05-11T20:42:43.597Z,35.50
2019-05-11T20:45:12.487Z,35.87
2019-05-11T20:47:41.772Z,36.08
2019-05-11T20:50:10.585Z,36.65
2019-05-11T20:52:40.854Z,34.63
2019-05-11T20:55:09.554Z,32.95
2019-05-11T20:57:39.350Z,34.48
2019-05-11T21:00:11.994Z,33.00
2019-05-11T21:02:40.580Z,33.50
2019-05-11T21:05:10.507Z,35.13
2019-05-11T21:07:39.209Z,34.43
2019-05-11T21:10:08.712Z,39.03
2019-05-11T21:12:38.564Z,39.38
2019-05-11T21:15:09.255Z,39.10
2019-05-11T21:17:37.911Z,37.30
2019-05-11T21:20:08.481Z,38.45
2019-05-11T21:22:40.060Z,35.52
2019-05-11T21:25:09.214Z,39.67
2019-05-11T21:27:38.652Z,31.23
2019-05-11T21:32:39.228Z,32.50
2019-05-11T21:35:08.983Z,33.83
2019-05-11T21:37:38.710Z,32.75
2019-05-11T21:40:09.123Z,34.08
2019-05-11T21:42:39.109Z,34.95
2019-05-11T21:45:10.238Z,42.25
2019-05-11T21:47:39.435Z,43.13
2019-05-11T21:52:38.376Z,43.05
2019-05-11T21:55:09.510Z,42.38
2019-05-11T21:57:38.809Z,42.73
2019-05-11T22:00:09.969Z,42.25
2019-05-11T22:02:39.090Z,41.53
2019-05-11T22:05:09.776Z,38.65
2019-05-11T22:07:41.785Z,41.58
2019-05-11T22:10:09.420Z,41.48
2019-05-11T22:12:39.123Z,41.30
2019-05-11T22:15:09.719Z,38.98
2019-05-11T22:17:39.675Z,40.30
2019-05-11T22:20:09.521Z,38.58
2019-05-11T22:22:39.012Z,37.80
2019-05-11T22:25:09.953Z,38.02
2019-05-11T22:27:39.141Z,37.42
2019-05-11T22:30:09.212Z,38.10
2019-05-11T22:32:38.614Z,35.98
2019-05-11T22:35:09.153Z,34.70
2019-05-11T22:37:38.683Z,36.53
2019-05-11T22:40:09.232Z,39.80
2019-05-11T22:42:38.323Z,41.33
2019-05-11T22:45:08.461Z,39.58
2019-05-11T22:47:39.181Z,37.30
2019-05-11T22:50:08.570Z,38.45
2019-05-11T22:52:40.071Z,37.20
2019-05-11T22:55:11.700Z,38.50
2019-05-11T22:57:38.661Z,38.55
2019-05-11T23:00:09.065Z,39.88
2019-05-11T23:02:38.269Z,40.88
2019-05-11T23:05:08.497Z,39.38
2019-05-11T23:07:41.382Z,41.58
2019-05-11T23:10:10.453Z,38.40
2019-05-11T23:12:39.068Z,39.38
2019-05-11T23:15:10.036Z,42.50
2019-05-11T23:17:38.886Z,41.23
2019-05-11T23:20:08.414Z,35.48
2019-05-11T23:22:53.239Z,41.08
2019-05-11T23:25:09.191Z,41.80
2019-05-11T23:27:39.293Z,43.05
2019-05-11T23:30:08.901Z,41.23
2019-05-11T23:32:37.740Z,40.88
2019-05-11T23:35:08.354Z,41.23
2019-05-11T23:37:38.692Z,40.65
2019-05-11T23:40:09.953Z,42.93
2019-05-11T23:42:38.532Z,42.40
2019-05-11T23:45:09.137Z,40.97
2019-05-11T23:47:39.316Z,41.05
2019-05-11T23:50:08.717Z,39.85
2019-05-11T23:52:38.223Z,38.08
2019-05-11T23:55:08.384Z,36.35
2019-05-11T23:57:37.879Z,36.63
